createdAt,value
2017-10-05T00:03:06.368Z,6.77
2017-10-05T00:08:07.207Z,7.07
2017-10-05T00:13:08.076Z,6.40
2017-10-05T00:18:08.906Z,6.40
2017-10-05T00:23:09.757Z,6.93
2017-10-05T00:28:10.620Z,5.73
2017-10-05T00:33:11.468Z,6.10
2017-10-05T00:38:12.301Z,5.73
2017-10-05T00:43:13.147Z,5.53
2017-10-05T00:48:14.001Z,4.90
2017-10-05T00:53:14.830Z,5.53
2017-10-05T00:58:15.679Z,5.80
2017-10-05T01:03:17.354Z,6.00
2017-10-05T01:08:18.199Z,4.60
2017-10-05T01:13:19.043Z,5.20
2017-10-05T01:18:19.907Z,5.00
2017-10-05T01:23:20.762Z,4.33
2017-10-05T01:28:21.628Z,4.50
2017-10-05T01:33:22.540Z,4.20
2017-10-05T01:38:23.393Z,4.17
2017-10-05T01:43:24.219Z,4.37
2017-10-05T01:48:25.072Z,4.33
2017-10-05T01:53:25.915Z,3.93
2017-10-05T01:58:26.754Z,4.40
2017-10-05T02:03:27.597Z,4.27
2017-10-05T02:08:28.432Z,4.63
2017-10-05T02:13:29.282Z,4.10
2017-10-05T02:18:30.128Z,4.80
2017-10-05T02:23:30.995Z,4.07
2017-10-05T02:28:31.838Z,4.63
2017-10-05T02:33:32.694Z,4.50
2017-10-05T02:38:33.523Z,4.43
2017-10-05T02:43:34.351Z,4.43
2017-10-05T02:48:35.211Z,4.53
2017-10-05T02:53:36.546Z,4.20
2017-10-05T02:58:37.450Z,4.23
2017-10-05T03:03:38.590Z,4.13
2017-10-05T03:08:39.470Z,3.80
2017-10-05T03:13:40.324Z,3.93
2017-10-05T03:18:41.186Z,3.53
2017-10-05T03:23:42.054Z,4.13
2017-10-05T03:28:42.887Z,3.77
2017-10-05T03:33:43.744Z,3.87
2017-10-05T03:38:44.595Z,4.03
2017-10-05T03:43:45.436Z,3.80
2017-10-05T03:48:46.310Z,3.70
2017-10-05T03:53:47.155Z,3.90
2017-10-05T03:58:48.011Z,3.60
2017-10-05T04:03:48.854Z,3.90
2017-10-05T04:08:49.719Z,3.37
2017-10-05T04:13:50.556Z,3.70
2017-10-05T04:18:51.416Z,3.70
2017-10-05T04:23:52.248Z,3.63
2017-10-05T04:28:53.104Z,4.03
2017-10-05T04:33:53.963Z,3.30
2017-10-05T04:38:54.855Z,3.50
2017-10-05T04:43:55.698Z,3.00
2017-10-05T04:48:56.575Z,3.33
2017-10-05T04:53:57.415Z,3.97
2017-10-05T04:58:58.276Z,2.83
2017-10-05T05:03:59.127Z,3.30
2017-10-05T05:08:59.995Z,2.63
2017-10-05T05:14:00.828Z,3.37
2017-10-05T05:19:01.671Z,3.30
2017-10-05T05:24:02.515Z,2.70
2017-10-05T05:29:03.373Z,3.20
2017-10-05T05:34:04.242Z,3.57
2017-10-05T05:39:05.086Z,2.93
2017-10-05T05:44:05.955Z,3.20
2017-10-05T05:49:06.824Z,2.73
2017-10-05T05:54:07.659Z,2.77
2017-10-05T05:59:08.511Z,2.80
2017-10-05T06:04:09.343Z,3.20
2017-10-05T06:09:10.247Z,2.90
2017-10-05T06:14:11.074Z,3.37
2017-10-05T06:19:11.934Z,3.40
2017-10-05T06:24:12.751Z,3.63
2017-10-05T06:29:13.579Z,6.20
2017-10-05T06:34:14.416Z,9.10
2017-10-05T06:39:15.264Z,9.47
2017-10-05T06:44:16.128Z,7.67
2017-10-05T06:49:16.976Z,6.27
2017-10-05T06:54:17.803Z,6.57
2017-10-05T06:59:18.631Z,5.50
2017-10-05T07:04:19.464Z,6.07
2017-10-05T07:09:20.346Z,5.40
2017-10-05T07:14:21.178Z,5.60
2017-10-05T07:19:22.041Z,5.73
2017-10-05T07:24:22.879Z,5.43
2017-10-05T07:29:23.708Z,5.10
2017-10-05T07:34:24.545Z,5.37
2017-10-05T07:39:25.407Z,4.70
2017-10-05T07:44:26.259Z,4.20
2017-10-05T07:49:27.117Z,6.50
2017-10-05T07:54:27.955Z,7.17
2017-10-05T07:59:28.809Z,5.37
2017-10-05T08:04:29.656Z,5.10
2017-10-05T08:09:30.484Z,5.07
2017-10-05T08:14:31.315Z,5.43
2017-10-05T08:19:32.175Z,5.33
2017-10-05T08:24:33.013Z,5.13
2017-10-05T08:29:33.871Z,5.00
2017-10-05T08:34:34.723Z,4.37
2017-10-05T08:39:35.567Z,4.50
2017-10-05T08:44:36.423Z,3.60
2017-10-05T08:49:37.267Z,3.73
2017-10-05T08:54:38.133Z,3.80
2017-10-05T08:59:39.001Z,3.60
2017-10-05T09:04:39.843Z,4.00
2017-10-05T09:09:40.703Z,3.23
2017-10-05T09:14:41.557Z,3.80
2017-10-05T09:19:42.423Z,3.70
2017-10-05T09:24:43.283Z,3.40
2017-10-05T09:29:44.123Z,3.10
2017-10-05T09:34:44.966Z,2.23
2017-10-05T09:39:45.804Z,2.90
2017-10-05T09:44:46.665Z,3.10
2017-10-05T09:49:47.498Z,3.13
2017-10-05T09:54:48.349Z,2.67
2017-10-05T09:59:49.176Z,3.33
2017-10-05T10:04:50.032Z,25.83
2017-10-05T10:09:50.864Z,26.90
2017-10-05T10:14:51.696Z,27.10
2017-10-05T10:19:52.543Z,27.97
2017-10-05T10:24:53.392Z,25.70
2017-10-05T10:29:54.253Z,27.63
2017-10-05T10:34:55.123Z,27.37
2017-10-05T10:39:55.957Z,25.90
2017-10-05T10:44:56.804Z,24.47
2017-10-05T10:49:57.666Z,24.83
2017-10-05T10:54:58.535Z,26.87
2017-10-05T10:59:59.374Z,23.67
2017-10-05T11:05:00.324Z,23.50
2017-10-05T11:10:01.165Z,23.47
2017-10-05T11:15:02.023Z,24.77
2017-10-05T11:20:02.903Z,22.40
2017-10-05T11:25:03.754Z,22.10
2017-10-05T11:30:04.614Z,23.97
2017-10-05T11:35:05.473Z,21.13
2017-10-05T11:40:06.333Z,22.60
2017-10-05T11:45:07.179Z,20.60
2017-10-05T11:50:08.036Z,21.93
2017-10-05T11:55:08.898Z,21.10
2017-10-05T12:00:09.779Z,20.07
2017-10-05T12:05:10.637Z,20.83
2017-10-05T12:10:11.513Z,19.20
2017-10-05T12:15:12.374Z,18.17
2017-10-05T12:20:13.208Z,19.30
2017-10-05T12:25:14.076Z,18.43
2017-10-05T12:30:14.916Z,16.60
2017-10-05T12:35:15.775Z,17.63
2017-10-05T12:40:16.634Z,18.20
2017-10-05T12:45:17.490Z,17.73
2017-10-05T12:50:18.696Z,18.13
2017-10-05T12:55:19.554Z,14.47
2017-10-05T13:00:20.437Z,15.90
2017-10-05T13:05:21.282Z,16.33
2017-10-05T13:10:22.136Z,16.00
2017-10-05T13:15:22.994Z,16.30
2017-10-05T13:20:23.849Z,15.23
2017-10-05T13:25:24.696Z,14.07
2017-10-05T13:30:25.579Z,13.50
2017-10-05T13:35:26.447Z,13.90
2017-10-05T13:40:27.305Z,13.33
2017-10-05T13:45:28.154Z,14.43
2017-10-05T13:50:28.992Z,13.10
2017-10-05T13:55:29.849Z,13.10
2017-10-05T14:00:30.687Z,14.33
2017-10-05T14:05:31.546Z,13.40
2017-10-05T14:10:32.413Z,13.23
2017-10-05T14:15:33.271Z,13.07
2017-10-05T14:20:34.148Z,12.27
2017-10-05T14:25:34.995Z,11.70
2017-10-05T14:30:35.842Z,11.67
2017-10-05T14:35:36.706Z,10.63
2017-10-05T14:40:37.554Z,11.60
2017-10-05T14:45:38.412Z,10.13
2017-10-05T14:50:39.263Z,10.80
2017-10-05T14:55:40.115Z,11.70
2017-10-05T15:00:40.967Z,11.03
2017-10-05T15:05:41.839Z,10.30
2017-10-05T15:10:42.692Z,10.80
2017-10-05T15:15:43.523Z,9.83
2017-10-05T15:20:44.394Z,10.83
2017-10-05T15:25:45.254Z,10.03
2017-10-05T15:30:46.092Z,9.90
2017-10-05T15:35:46.927Z,10.00
2017-10-05T15:40:47.792Z,9.53
2017-10-05T15:45:48.636Z,9.20
2017-10-05T15:50:49.496Z,9.33
2017-10-05T15:55:50.348Z,9.47
2017-10-05T16:00:51.232Z,8.07
2017-10-05T16:05:52.105Z,9.13
2017-10-05T16:10:52.951Z,8.73
2017-10-05T16:15:53.809Z,9.30
2017-10-05T16:20:54.668Z,8.43
2017-10-05T16:25:55.550Z,9.10
2017-10-05T16:30:56.407Z,8.07
2017-10-05T16:35:57.251Z,8.10
2017-10-05T16:40:58.116Z,8.37
2017-10-05T16:45:58.975Z,8.13
2017-10-05T16:50:59.823Z,8.80
2017-10-05T16:56:00.687Z,6.87
2017-10-05T17:01:01.552Z,7.53
2017-10-05T17:06:02.424Z,9.20
2017-10-05T17:11:03.296Z,8.03
2017-10-05T17:16:04.141Z,7.70
2017-10-05T17:21:04.984Z,7.93
2017-10-05T17:26:05.820Z,7.37
2017-10-05T17:31:06.660Z,7.67
2017-10-05T17:36:07.535Z,7.50
2017-10-05T17:41:08.382Z,6.93
2017-10-05T17:46:09.248Z,6.63
2017-10-05T17:51:10.201Z,7.87
2017-10-05T17:56:11.064Z,7.30
2017-10-05T18:01:11.914Z,7.33
2017-10-05T18:06:12.763Z,6.73
2017-10-05T18:11:13.624Z,6.43
2017-10-05T18:16:14.461Z,7.03
2017-10-05T18:21:15.311Z,6.20
2017-10-05T18:26:16.170Z,7.60
2017-10-05T18:31:17.141Z,6.10
2017-10-05T18:36:17.983Z,6.43
2017-10-05T18:41:18.828Z,6.07
2017-10-05T18:46:19.716Z,6.60
2017-10-05T18:51:20.561Z,6.00
2017-10-05T18:56:21.416Z,5.47
2017-10-05T19:01:22.289Z,5.33
2017-10-05T19:06:23.191Z,5.33
2017-10-05T19:11:24.094Z,5.67
2017-10-05T19:16:24.976Z,5.60
2017-10-05T19:21:25.851Z,5.77
2017-10-05T19:26:26.698Z,5.70
2017-10-05T19:31:27.568Z,5.70
2017-10-05T19:36:28.454Z,5.10
2017-10-05T19:41:29.331Z,5.03
2017-10-05T19:46:30.201Z,5.63
2017-10-05T19:51:31.044Z,6.20
2017-10-05T19:56:31.909Z,5.03
2017-10-05T20:01:32.812Z,5.47
2017-10-05T20:06:33.700Z,5.60
2017-10-05T20:11:34.567Z,5.70
2017-10-05T20:16:35.455Z,5.43
2017-10-05T20:21:36.297Z,4.67
2017-10-05T20:26:37.162Z,5.50
2017-10-05T20:31:38.156Z,4.77
2017-10-05T20:36:39.052Z,5.10
2017-10-05T20:41:39.903Z,4.80
2017-10-05T20:46:40.771Z,4.53
2017-10-05T20:51:41.622Z,4.00
2017-10-05T20:56:42.508Z,4.73
2017-10-05T21:01:43.377Z,4.53
2017-10-05T21:06:44.221Z,4.47
2017-10-05T21:11:45.072Z,4.10
2017-10-05T21:16:45.950Z,3.57
2017-10-05T21:21:46.808Z,3.70
2017-10-05T21:26:47.648Z,3.57
2017-10-05T21:31:48.500Z,4.03
2017-10-05T21:36:49.348Z,3.83
2017-10-05T21:41:50.199Z,3.80
2017-10-05T21:46:51.036Z,3.73
2017-10-05T21:51:51.881Z,3.60
2017-10-05T21:56:52.817Z,4.00
2017-10-05T22:01:53.708Z,3.03
2017-10-05T22:06:54.728Z,3.80
2017-10-05T22:11:55.617Z,3.07
2017-10-05T22:16:56.504Z,3.70
2017-10-05T22:21:57.398Z,3.30
2017-10-05T22:26:58.364Z,3.80
2017-10-05T22:31:59.313Z,4.60
2017-10-05T22:37:00.184Z,3.33
2017-10-05T22:42:01.069Z,3.10
2017-10-05T22:47:01.933Z,3.80
2017-10-05T22:52:02.813Z,4.23
2017-10-05T22:57:03.695Z,3.50
2017-10-05T23:02:04.572Z,4.00
2017-10-05T23:07:05.473Z,3.63
2017-10-05T23:12:06.356Z,3.30
2017-10-05T23:17:07.328Z,3.60
2017-10-05T23:22:08.214Z,3.80
2017-10-05T23:27:09.092Z,3.40
2017-10-05T23:32:09.968Z,3.53
2017-10-05T23:37:10.869Z,3.00
2017-10-05T23:42:11.769Z,3.67
2017-10-05T23:47:12.671Z,3.47
2017-10-05T23:52:13.533Z,4.00
2017-10-05T23:57:14.445Z,3.17
